< VanCam Weather - WU Station History
^^
Station Historical Data
Daily Summary for January 12, 2018 Units:  Metric    English   Both
« Previous Day
Next Day »
Daily Weekly Monthly Yearly Custom
  High: Low: Average:
Temperature: 10.7 °C 7.8 °C 9.3 °C
Dew Point: 9.3 °C 7.2 °C 8.4 °C
Humidity: 98% 88% 94%
Wind Speed: 14.8km/h 0km/h 3.5km/h
Wind Gust: 14.8km/h - -
Wind- - SSE
Pressure: 1030 hPa 1020.9 hPa -
Precipitation: 1.52 mm    
Historical Graphs
 
 
Tabular Data for January 12, 2018
Time Temperature Dew Point Pressure Wind Wind Speed Wind Gust Humidity Rainfall Rate (Hourly) solar Conditions
00:08 9.9 °C 9 °C 1020.9 hPa SE 5.6 km/h 5.6 km/h 94% 0 mm WeatherDisplay:10.37 W/m2 RA
00:26 9.9 °C 9.2 °C 1021.2 hPa South 14.8 km/h 14.8 km/h 95% 0 mm WeatherDisplay:10.37 W/m2 CLR
00:37 9.9 °C 9 °C 1021.2 hPa SW 5.6 km/h 5.6 km/h 94% 0 mm WeatherDisplay:10.37 W/m2 CLR
00:42 9.9 °C 9.1 °C 1021.2 hPa West 5.6 km/h 5.6 km/h 95% 0 mm WeatherDisplay:10.37 W/m2 CLR
00:50 9.8 °C 9.1 °C 1021.6 hPa SSW 5.6 km/h 6.8 km/h 95% 0 mm WeatherDisplay:10.37 W/m2 CLR
00:55 9.8 °C 9.1 °C 1021.6 hPa SSW 1.9 km/h   95% 0 mm WeatherDisplay:10.37 W/m2 CLR
01:07 9.8 °C 9 °C 1021.6 hPa WSW 13 km/h 13 km/h 95% 0 mm WeatherDisplay:10.37 W/m2 CLR
01:13 9.8 °C 9 °C 1021.6 hPa SSE 11.1 km/h 11.1 km/h 95% 0 mm WeatherDisplay:10.37 W/m2 CLR
01:20 9.8 °C 9.1 °C 1021.6 hPa SW 6.4 km/h 6.4 km/h 95% 0 mm WeatherDisplay:10.37 W/m2 CLR
01:34 9.8 °C 9 °C 1021.9 hPa East 1.9 km/h 1.9 km/h 95% 0 mm WeatherDisplay:10.37 W/m2 CLR
01:48 9.8 °C 8.8 °C 1022.2 hPa WSW 11.1 km/h 11.1 km/h 94% 0 mm WeatherDisplay:10.37 W/m2 CLR
01:54 9.8 °C 8.9 °C 1022.2 hPa East 5.6 km/h 5.6 km/h 94% 0 mm WeatherDisplay:10.37 W/m2 CLR
02:03 9.8 °C 8.9 °C 1022.2 hPa SSE 3.7 km/h 3.7 km/h 94% 0 mm WeatherDisplay:10.37 W/m2 CLR
02:09 9.8 °C 8.9 °C 1022.6 hPa South 7.4 km/h 7.4 km/h 94% 0 mm WeatherDisplay:10.37 W/m2 CLR
02:21 9.8 °C 8.9 °C 1022.9 hPa NE 3.7 km/h 3.7 km/h 94% 0 mm WeatherDisplay:10.37 W/m2 CLR
02:29 9.7 °C 8.9 °C 1022.9 hPa SW 5.6 km/h 5.6 km/h 95% 0.25 mm WeatherDisplay:10.37 W/m2 RA
02:35 9.7 °C 8.9 °C 1022.9 hPa SW 7.4 km/h 7.4 km/h 95% 0.51 mm WeatherDisplay:10.37 W/m2 RA
02:48 9.6 °C 8.9 °C 1023.2 hPa SE 5.6 km/h 5.6 km/h 96% 0.51 mm WeatherDisplay:10.37 W/m2
02:56 9.6 °C 8.9 °C 1023.2 hPa NW 6.4 km/h 6.4 km/h 96% 0.51 mm WeatherDisplay:10.37 W/m2
03:02 9.6 °C 8.8 °C 1023.2 hPa North 1.9 km/h 1.9 km/h 95% 0.51 mm WeatherDisplay:10.37 W/m2
03:08 9.6 °C 8.8 °C 1023.2 hPa Calm     95% 0.51 mm WeatherDisplay:10.37 W/m2
03:18 9.6 °C 8.8 °C 1023.6 hPa East 3.2 km/h 3.2 km/h 95% 0.51 mm WeatherDisplay:10.37 W/m2
03:24 9.7 °C 8.9 °C 1023.6 hPa SSE 3.7 km/h 3.7 km/h 95% 0.25 mm WeatherDisplay:10.37 W/m2
03:33 9.7 °C 8.9 °C 1023.2 hPa ESE 3.7 km/h 3.7 km/h 95% 0.25 mm WeatherDisplay:10.37 W/m2
04:15 9.6 °C 8.9 °C 1024.3 hPa WSW 3.2 km/h 3.2 km/h 96% 0 mm WeatherDisplay:10.37 W/m2 CLR
04:23 9.5 °C 8.9 °C 1023.9 hPa SSE 5.6 km/h 5.6 km/h 96% 0 mm WeatherDisplay:10.37 W/m2 CLR
04:30 9.5 °C 8.9 °C 1024.3 hPa SW 3.7 km/h 3.7 km/h 96% 0 mm WeatherDisplay:10.37 W/m2 CLR
04:35 9.5 °C 8.9 °C 1024.3 hPa SSE 5.6 km/h 5.6 km/h 96% 0 mm WeatherDisplay:10.37 W/m2 CLR
04:37 9.5 °C 8.9 °C 1024.3 hPa ESE 5.6 km/h 5.6 km/h 96% 0 mm WeatherDisplay:10.37 W/m2 CLR
04:44 9.5 °C 8.9 °C 1024.3 hPa South 1.9 km/h 2.4 km/h 96% 0 mm WeatherDisplay:10.37 W/m2 CLR
05:16 9.4 °C 8.8 °C 1024.6 hPa ESE 1.9 km/h 1.9 km/h 96% 0 mm WeatherDisplay:10.37 W/m2 CLR
05:21 9.4 °C 8.8 °C 1024.6 hPa NNW 3.2 km/h 3.2 km/h 96% 0 mm WeatherDisplay:10.37 W/m2 CLR
05:26 9.4 °C 8.8 °C 1024.6 hPa North 1.9 km/h 1.9 km/h 96% 0 mm WeatherDisplay:10.37 W/m2 CLR
05:32 9.4 °C 8.8 °C 1024.9 hPa East 3.2 km/h 3.2 km/h 96% 0 mm WeatherDisplay:10.37 W/m2 CLR
05:48 9.4 °C 8.7 °C 1024.9 hPa NNW 1.9 km/h 1.9 km/h 95% 0 mm WeatherDisplay:10.37 W/m2 CLR
06:10 9.3 °C 8.7 °C 1025.6 hPa SW 3.7 km/h 3.7 km/h 96% 0.51 mm WeatherDisplay:10.37 W/m2 RA
06:15 9.3 °C 8.7 °C 1025.6 hPa Calm     96% 0.51 mm WeatherDisplay:10.37 W/m2 RA
06:25 9.2 °C 8.6 °C 1025.6 hPa WSW 1.6 km/h 1.6 km/h 96% 0.76 mm WeatherDisplay:10.37 W/m2 RA
06:30 9.2 °C 8.6 °C 1025.6 hPa ESE 5.6 km/h 5.6 km/h 96% 1.02 mm WeatherDisplay:10.37 W/m2 RA
06:45 9.2 °C 8.6 °C 1025.6 hPa ESE 3.7 km/h 3.7 km/h 96% 1.02 mm WeatherDisplay:10.37 W/m2
06:55 9.2 °C 8.6 °C 1025.6 hPa ESE 1.9 km/h 1.9 km/h 96% 0.76 mm WeatherDisplay:10.37 W/m2
07:03 9.1 °C 8.5 °C 1026 hPa SW 5.6 km/h 5.6 km/h 96% 0.76 mm WeatherDisplay:10.37 W/m2
07:16 9.1 °C 8.5 °C 1025.6 hPa SE 1.9 km/h 1.9 km/h 96% 0.51 mm WeatherDisplay:10.37 W/m2
07:21 9.1 °C 8.4 °C 1026 hPa East 3.7 km/h 3.7 km/h 96% 0.25 mm WeatherDisplay:10.37 W/m2
07:40 9 °C 8.4 °C 1026.3 hPa SW 1.9 km/h 1.9 km/h 96% 0 mm WeatherDisplay:10.37 W/m2 CLR
07:56 8.9 °C 8.3 °C 1026.3 hPa East 3.7 km/h 3.7 km/h 96% 0 mm WeatherDisplay:10.37 W/m2 CLR
08:05 8.9 °C 8.2 °C 1026.3 hPa East 5.6 km/h 5.6 km/h 95% 0 mm WeatherDisplay:10.37 W/m2 CLR
08:10 9 °C 8.2 °C 1026.6 hPa South 3.7 km/h 3.7 km/h 95% 0 mm WeatherDisplay:10.37 W/m2 CLR
08:31 9.1 °C 8.3 °C 1026.6 hPa SSW 1.6 km/h   95% 0 mm WeatherDisplay:10.37 W/m2 CLR
08:46 9.1 °C 8.3 °C 1026.6 hPa NE 3.7 km/h 3.7 km/h 95% 0 mm WeatherDisplay:10.37 W/m2 CLR
09:07 9.1 °C 8.2 °C 1027 hPa SSE 5.6 km/h 5.6 km/h 94% 0 mm WeatherDisplay:10.37 W/m2 CLR
09:25 9.3 °C 8.3 °C 1027.3 hPa East 5.6 km/h 5.6 km/h 93% 0 mm WeatherDisplay:10.37 W/m2 CLR
09:33 9.4 °C 8.2 °C 1027.7 hPa WSW 1.9 km/h 1.9 km/h 92% 0 mm WeatherDisplay:10.37 W/m2 CLR
09:45 9.5 °C 8.3 °C 1027.7 hPa SSE 1.6 km/h 8 km/h 92% 0 mm WeatherDisplay:10.37 W/m2 CLR
09:50 9.6 °C 8.5 °C 1027.7 hPa Calm   0.3 km/h 93% 0 mm WeatherDisplay:10.37 W/m2 CLR
09:58 9.7 °C 8.4 °C 1028 hPa NW 3.7 km/h 3.7 km/h 92% 0 mm WeatherDisplay:10.37 W/m2 CLR
10:03 9.7 °C 8.5 °C 1027.7 hPa West 3.7 km/h 3.7 km/h 92% 0 mm WeatherDisplay:10.37 W/m2 CLR
10:17 9.8 °C 8.6 °C 1028 hPa WSW 5.6 km/h 5.6 km/h 92% 0 mm WeatherDisplay:10.37 W/m2 CLR
10:24 9.8 °C 8.4 °C 1028 hPa SSW 3.7 km/h 3.7 km/h 91% 0 mm WeatherDisplay:10.37 W/m2 CLR
10:38 10 °C 8.8 °C 1028.3 hPa SE 5.6 km/h 5.6 km/h 92% 0 mm WeatherDisplay:10.37 W/m2 CLR
10:48 10.1 °C 8.7 °C 1028.3 hPa WNW 5.6 km/h 5.6 km/h 91% 0 mm WeatherDisplay:10.37 W/m2 CLR
10:56 10.2 °C 8.6 °C 1028.3 hPa NE 5.6 km/h 5.6 km/h 90% 0 mm WeatherDisplay:10.37 W/m2 CLR
11:02 10.2 °C 8.5 °C 1028.7 hPa ENE 5.6 km/h 5.6 km/h 89% 0 mm WeatherDisplay:10.37 W/m2 CLR
11:07 10.3 °C 8.7 °C 1028.7 hPa ENE 7.4 km/h 7.4 km/h 90% 0 mm WeatherDisplay:10.37 W/m2 CLR
11:13 10.4 °C 8.9 °C 1028.7 hPa WNW 5.6 km/h 5.6 km/h 90% 0 mm WeatherDisplay:10.37 W/m2 CLR
11:22 10.4 °C 8.7 °C 1028.7 hPa SSW 5.6 km/h 5.6 km/h 89% 0 mm WeatherDisplay:10.37 W/m2 CLR
11:31 10.4 °C 8.7 °C 1028.7 hPa SW 5.6 km/h 5.6 km/h 89% 0 mm WeatherDisplay:10.37 W/m2 CLR
11:39 10.4 °C 8.8 °C 1029 hPa SSW 4.8 km/h 4.8 km/h 90% 0 mm WeatherDisplay:10.37 W/m2 CLR
11:54 10.3 °C 8.8 °C 1029 hPa SW 5.6 km/h 5.6 km/h 90% 0 mm WeatherDisplay:10.37 W/m2 CLR
11:59 10.3 °C 8.6 °C 1028.7 hPa SSW 3.7 km/h 3.7 km/h 89% 0 mm WeatherDisplay:10.37 W/m2 CLR
12:13 10.4 °C 8.6 °C 1028.7 hPa SSE 13 km/h 13 km/h 88% 0 mm WeatherDisplay:10.37 W/m2 CLR
12:25 10.4 °C 8.7 °C 1028.7 hPa West 3.7 km/h 3.7 km/h 89% 0 mm WeatherDisplay:10.37 W/m2 CLR
12:37 10.4 °C 8.9 °C 1028.7 hPa SSE 3.7 km/h 3.7 km/h 90% 0 mm WeatherDisplay:10.37 W/m2 CLR
12:42 10.4 °C 8.9 °C 1028.7 hPa South 5.6 km/h 5.6 km/h 90% 0 mm WeatherDisplay:10.37 W/m2 CLR
12:48 10.4 °C 8.8 °C 1029 hPa West 9.3 km/h 9.3 km/h 90% 0 mm WeatherDisplay:10.37 W/m2 CLR
13:17 10.4 °C 8.9 °C 1029 hPa SSW 5.6 km/h 5.6 km/h 90% 0 mm WeatherDisplay:10.37 W/m2 CLR
13:22 10.5 °C 8.8 °C 1029 hPa SW 7.4 km/h 7.4 km/h 89% 0 mm WeatherDisplay:10.37 W/m2 CLR
13:28 10.5 °C 8.6 °C 1029 hPa SSW 5.6 km/h 5.6 km/h 88% 0 mm WeatherDisplay:10.37 W/m2 CLR
13:33 10.5 °C 8.9 °C 1029 hPa SSW 1.9 km/h 1.9 km/h 90% 0 mm WeatherDisplay:10.37 W/m2 CLR
14:00 10.6 °C 9.2 °C 1029 hPa ENE 1.9 km/h   91% 0 mm WeatherDisplay:10.37 W/m2 CLR
14:06 10.7 °C 9.3 °C 1029 hPa ENE 1.9 km/h 1.9 km/h 91% 0 mm WeatherDisplay:10.37 W/m2 CLR
14:12 10.7 °C 9.3 °C 1029.3 hPa Calm     91% 0 mm WeatherDisplay:10.37 W/m2 CLR
14:19 10.6 °C 9.1 °C 1029.3 hPa SSE 5.6 km/h 5.6 km/h 90% 0 mm WeatherDisplay:10.37 W/m2 CLR
14:26 10.5 °C 9.3 °C 1029.3 hPa NE 3.7 km/h   92% 0 mm WeatherDisplay:10.37 W/m2 CLR
14:38 10.4 °C 9.1 °C 1029.3 hPa SSE 3.7 km/h 3.7 km/h 91% 0 mm WeatherDisplay:10.37 W/m2 CLR
14:47 10.5 °C 9.3 °C 1029.3 hPa SE 3.7 km/h 3.7 km/h 92% 0 mm WeatherDisplay:10.37 W/m2 CLR
14:57 10.5 °C 8.9 °C 1029.7 hPa SSE 1.9 km/h 1.9 km/h 90% 0 mm WeatherDisplay:10.37 W/m2 CLR
15:06 10.6 °C 9 °C 1029.7 hPa ENE 1.9 km/h 1.9 km/h 90% 0 mm WeatherDisplay:10.37 W/m2 CLR
15:22 10.6 °C 8.7 °C 1030 hPa South 5.6 km/h 5.6 km/h 88% 0 mm WeatherDisplay:10.37 W/m2 CLR
15:50 10.5 °C 8.8 °C 1029.7 hPa West 1.9 km/h 1.9 km/h 89% 0 mm WeatherDisplay:10.37 W/m2 CLR
16:01 10.4 °C 8.9 °C 1029.7 hPa Calm     90% 0 mm WeatherDisplay:10.37 W/m2 CLR
16:09 10.4 °C 8.8 °C 1029.7 hPa West 1.9 km/h 1.9 km/h 90% 0 mm WeatherDisplay:10.37 W/m2 CLR
16:19 10.3 °C 8.7 °C 1029.7 hPa West 1.9 km/h 1.9 km/h 90% 0 mm WeatherDisplay:10.37 W/m2 CLR
16:51 10.1 °C 8.8 °C 1029.7 hPa Calm     92% 0 mm WeatherDisplay:10.37 W/m2 CLR
16:58 9.9 °C 8.9 °C 1029.7 hPa Calm     93% 0 mm WeatherDisplay:10.37 W/m2 CLR
17:03 9.8 °C 8.7 °C 1029.7 hPa Calm     93% 0 mm WeatherDisplay:10.37 W/m2 CLR
17:10 9.5 °C 8.4 °C 1029.7 hPa Calm     93% 0 mm WeatherDisplay:10.37 W/m2 CLR
17:18 9.3 °C 8.2 °C 1029.7 hPa Calm     93% 0 mm WeatherDisplay:10.37 W/m2 CLR
17:23 9.1 °C 8.2 °C 1029.7 hPa Calm     94% 0 mm WeatherDisplay:10.37 W/m2 CLR
17:34 8.8 °C 7.9 °C 1029.7 hPa NNE 1.9 km/h 1.9 km/h 94% 0 mm WeatherDisplay:10.37 W/m2 CLR
17:49 8.6 °C 7.9 °C 1029.3 hPa NNE 1.9 km/h 1.9 km/h 96% 0 mm WeatherDisplay:10.37 W/m2 CLR
17:57 8.5 °C 7.9 °C 1029.3 hPa NNE 1.9 km/h 1.9 km/h 96% 0 mm WeatherDisplay:10.37 W/m2 CLR
18:02 8.4 °C 7.8 °C 1029.3 hPa ENE 1.9 km/h 1.9 km/h 96% 0 mm WeatherDisplay:10.37 W/m2 CLR
18:15 8.3 °C 7.7 °C 1029.3 hPa ENE 3.7 km/h 3.7 km/h 96% 0 mm WeatherDisplay:10.37 W/m2 CLR
18:28 8 °C 7.2 °C 1029.3 hPa ENE 1.9 km/h 1.9 km/h 95% 0 mm WeatherDisplay:10.37 W/m2 CLR
18:43 7.8 °C 7.2 °C 1029.7 hPa ENE 3.7 km/h 3.7 km/h 96% 0 mm WeatherDisplay:10.37 W/m2 CLR
18:52 7.8 °C 7.2 °C 1029.7 hPa ENE 3.7 km/h 3.7 km/h 96% 0 mm WeatherDisplay:10.37 W/m2 CLR
18:58 7.8 °C 7.3 °C 1029.7 hPa ENE 3.7 km/h 3.7 km/h 97% 0 mm WeatherDisplay:10.37 W/m2 CLR
19:10 7.8 °C 7.3 °C 1029.7 hPa ENE 3.7 km/h 3.7 km/h 97% 0 mm WeatherDisplay:10.37 W/m2 CLR
19:16 7.8 °C 7.4 °C 1029.7 hPa ENE 3.7 km/h 3.7 km/h 97% 0 mm WeatherDisplay:10.37 W/m2 CLR
19:37 7.8 °C 7.3 °C 1029.7 hPa ENE 3.7 km/h 3.7 km/h 97% 0 mm WeatherDisplay:10.37 W/m2 CLR
19:42 7.8 °C 7.3 °C 1029.7 hPa South 1.6 km/h 1.6 km/h 97% 0 mm WeatherDisplay:10.37 W/m2 CLR
19:55 7.8 °C 7.4 °C 1029.7 hPa South 3.2 km/h 3.2 km/h 97% 0 mm WeatherDisplay:10.37 W/m2 CLR
20:01 7.8 °C 7.4 °C 1029.3 hPa South 1.9 km/h 1.9 km/h 97% 0 mm WeatherDisplay:10.37 W/m2 CLR
20:15 7.8 °C 7.4 °C 1029.7 hPa South 1.9 km/h 1.9 km/h 97% 0 mm WeatherDisplay:10.37 W/m2 CLR
20:20 7.8 °C 7.4 °C 1029.3 hPa South 3.7 km/h 3.7 km/h 97% 0 mm WeatherDisplay:10.37 W/m2 CLR
20:27 7.8 °C 7.4 °C 1029.7 hPa South 3.7 km/h 3.7 km/h 97% 0 mm WeatherDisplay:10.37 W/m2 CLR
20:33 7.8 °C 7.4 °C 1029.7 hPa Calm     97% 0 mm WeatherDisplay:10.37 W/m2 CLR
20:38 7.8 °C 7.3 °C 1029.3 hPa Calm     97% 0 mm WeatherDisplay:10.37 W/m2 CLR
21:03 7.8 °C 7.3 °C 1029.3 hPa Calm     97% 0 mm WeatherDisplay:10.37 W/m2 CLR
21:08 7.8 °C 7.6 °C 1029.3 hPa Calm     98% 0 mm WeatherDisplay:10.37 W/m2 CLR
21:33 7.9 °C 7.7 °C 1029.3 hPa Calm     98% 0 mm WeatherDisplay:10.37 W/m2 CLR
21:49 8.1 °C 7.8 °C 1029.3 hPa Calm     98% 0 mm WeatherDisplay:10.37 W/m2 CLR
21:54 8.2 °C 7.9 °C 1029.3 hPa Calm     98% 0 mm WeatherDisplay:10.37 W/m2 CLR
22:00 8.3 °C 7.8 °C 1029.7 hPa Calm     97% 0 mm WeatherDisplay:10.37 W/m2 CLR
22:09 8.4 °C 7.9 °C 1029.7 hPa East 3.7 km/h 3.7 km/h 97% 0 mm WeatherDisplay:10.37 W/m2 CLR
22:15 8.3 °C 7.7 °C 1030 hPa East 1.9 km/h 1.9 km/h 96% 0 mm WeatherDisplay:10.37 W/m2 CLR
22:21 8.3 °C 7.7 °C 1030 hPa East 3.7 km/h 3.7 km/h 96% 0 mm WeatherDisplay:10.37 W/m2 CLR
22:29 8.2 °C 7.6 °C 1029.7 hPa East 3.7 km/h 3.7 km/h 96% 0 mm WeatherDisplay:10.37 W/m2 CLR
22:42 8.3 °C 7.8 °C 1029.7 hPa ENE 3.7 km/h 3.7 km/h 97% 0 mm WeatherDisplay:10.37 W/m2 CLR
22:48 8.3 °C 7.9 °C 1029.7 hPa ENE 3.7 km/h 3.7 km/h 97% 0 mm WeatherDisplay:10.37 W/m2 CLR
22:54 8.3 °C 7.9 °C 1029.7 hPa ENE 1.9 km/h 1.9 km/h 97% 0 mm WeatherDisplay:10.37 W/m2 CLR
23:02 8.3 °C 7.9 °C 1030 hPa ENE 3.7 km/h 3.7 km/h 97% 0 mm WeatherDisplay:10.37 W/m2 CLR
23:08 8.3 °C 7.9 °C 1030 hPa ENE 1.9 km/h   97% 0 mm WeatherDisplay:10.37 W/m2 CLR
23:32 8.2 °C 7.8 °C 1029.7 hPa Calm     97% 0 mm WeatherDisplay:10.37 W/m2 CLR
23:37 8.2 °C 7.8 °C 1029.7 hPa ENE 3.2 km/h 3.2 km/h 97% 0 mm WeatherDisplay:10.37 W/m2 CLR
23:43 8.2 °C 7.8 °C 1029.7 hPa ENE 3.7 km/h 3.7 km/h 97% 0 mm WeatherDisplay:10.37 W/m2 CLR
23:51 8.2 °C 7.8 °C 1029.7 hPa ENE 1.9 km/h 1.9 km/h 97% 0 mm WeatherDisplay:10.37 W/m2 CLR
23:57 8.2 °C 7.8 °C 1029.7 hPa ENE 1.6 km/h 1.6 km/h 97% 0 mm WeatherDisplay:10.37 W/m2 CLR
VanCam Weather
Compliments of Weather Underground - 4 mb